sensor_id;sensor_type;location;lat;lon;timestamp;temperature;humidity
43987;DHT22;29650;47.378;8.300;2023-02-25T00:00:32;9.10;99.90
43987;DHT22;29650;47.378;8.300;2023-02-25T00:03:01;8.90;99.90
43987;DHT22;29650;47.378;8.300;2023-02-25T00:05:28;9.10;99.90
43987;DHT22;29650;47.378;8.300;2023-02-25T00:07:56;9.00;99.90
43987;DHT22;29650;47.378;8.300;2023-02-25T00:10:23;9.00;99.90
43987;DHT22;29650;47.378;8.300;2023-02-25T00:12:50;9.00;99.90
43987;DHT22;29650;47.378;8.300;2023-02-25T00:15:17;9.00;99.90
43987;DHT22;29650;47.378;8.300;2023-02-25T00:17:44;9.10;99.90
43987;DHT22;29650;47.378;8.300;2023-02-25T00:20:16;9.00;99.90
43987;DHT22;29650;47.378;8.300;2023-02-25T00:22:45;8.90;99.90
43987;DHT22;29650;47.378;8.300;2023-02-25T00:25:12;8.90;99.90
43987;DHT22;29650;47.378;8.300;2023-02-25T00:27:41;8.90;99.90
43987;DHT22;29650;47.378;8.300;2023-02-25T00:30:09;10.40;99.90
43987;DHT22;29650;47.378;8.300;2023-02-25T00:32:36;8.80;99.90
43987;DHT22;29650;47.378;8.300;2023-02-25T00:35:04;8.70;99.90
43987;DHT22;29650;47.378;8.300;2023-02-25T00:37:33;8.70;99.90
43987;DHT22;29650;47.378;8.300;2023-02-25T00:40:00;8.50;99.90
43987;DHT22;29650;47.378;8.300;2023-02-25T00:42:32;8.50;99.90
43987;DHT22;29650;47.378;8.300;2023-02-25T00:44:59;8.50;99.90
43987;DHT22;29650;47.378;8.300;2023-02-25T00:47:25;8.40;99.90
43987;DHT22;29650;47.378;8.300;2023-02-25T00:49:52;8.20;99.90
43987;DHT22;29650;47.378;8.300;2023-02-25T00:52:19;8.20;99.90
43987;DHT22;29650;47.378;8.300;2023-02-25T00:54:48;8.10;99.90
43987;DHT22;29650;47.378;8.300;2023-02-25T00:57:15;8.00;99.90
43987;DHT22;29650;47.378;8.300;2023-02-25T00:59:42;8.00;99.90
43987;DHT22;29650;47.378;8.300;2023-02-25T01:02:09;7.90;99.90
43987;DHT22;29650;47.378;8.300;2023-02-25T01:04:36;7.90;99.90
43987;DHT22;29650;47.378;8.300;2023-02-25T01:07:03;7.80;99.90
43987;DHT22;29650;47.378;8.300;2023-02-25T01:09:30;7.70;99.90
43987;DHT22;29650;47.378;8.300;2023-02-25T01:11:58;7.60;99.90
43987;DHT22;29650;47.378;8.300;2023-02-25T01:14:25;7.60;99.90
43987;DHT22;29650;47.378;8.300;2023-02-25T01:16:53;7.50;99.90
43987;DHT22;29650;47.378;8.300;2023-02-25T01:19:27;7.60;99.90
43987;DHT22;29650;47.378;8.300;2023-02-25T01:21:56;7.50;99.90
43987;DHT22;29650;47.378;8.300;2023-02-25T01:24:26;7.60;99.90
43987;DHT22;29650;47.378;8.300;2023-02-25T01:26:54;7.60;99.90
43987;DHT22;29650;47.378;8.300;2023-02-25T01:29:26;7.50;99.90
43987;DHT22;29650;47.378;8.300;2023-02-25T01:31:56;7.50;99.90
43987;DHT22;29650;47.378;8.300;2023-02-25T01:34:23;7.50;99.90
43987;DHT22;29650;47.378;8.300;2023-02-25T01:36:51;7.50;99.90
43987;DHT22;29650;47.378;8.300;2023-02-25T01:39:20;7.40;99.90
43987;DHT22;29650;47.378;8.300;2023-02-25T01:41:48;7.30;99.90
43987;DHT22;29650;47.378;8.300;2023-02-25T01:44:19;7.30;99.90
43987;DHT22;29650;47.378;8.300;2023-02-25T01:46:48;7.40;99.90
43987;DHT22;29650;47.378;8.300;2023-02-25T01:49:18;7.20;99.90
43987;DHT22;29650;47.378;8.300;2023-02-25T01:51:49;7.10;99.90
43987;DHT22;29650;47.378;8.300;2023-02-25T01:54:18;6.90;99.90
43987;DHT22;29650;47.378;8.300;2023-02-25T01:56:49;7.00;99.90
43987;DHT22;29650;47.378;8.300;2023-02-25T01:59:18;7.20;99.90
43987;DHT22;29650;47.378;8.300;2023-02-25T02:01:48;7.10;99.90
43987;DHT22;29650;47.378;8.300;2023-02-25T02:04:16;7.00;99.90
43987;DHT22;29650;47.378;8.300;2023-02-25T02:06:45;6.90;99.90
43987;DHT22;29650;47.378;8.300;2023-02-25T02:09:17;6.90;99.90
43987;DHT22;29650;47.378;8.300;2023-02-25T02:11:45;6.90;99.90
43987;DHT22;29650;47.378;8.300;2023-02-25T02:14:14;6.80;99.90
43987;DHT22;29650;47.378;8.300;2023-02-25T02:20:07;6.90;99.90
43987;DHT22;29650;47.378;8.300;2023-02-25T02:22:47;6.60;99.90
43987;DHT22;29650;47.378;8.300;2023-02-25T02:26:15;6.50;99.90
43987;DHT22;29650;47.378;8.300;2023-02-25T02:32:41;6.50;99.90
43987;DHT22;29650;47.378;8.300;2023-02-25T02:35:18;6.40;99.90
43987;DHT22;29650;47.378;8.300;2023-02-25T02:41:04;6.50;99.90
43987;DHT22;29650;47.378;8.300;2023-02-25T02:43:52;6.40;99.90
43987;DHT22;29650;47.378;8.300;2023-02-25T02:46:24;6.60;99.90
43987;DHT22;29650;47.378;8.300;2023-02-25T02:48:57;6.60;99.90
43987;DHT22;29650;47.378;8.300;2023-02-25T02:51:29;6.50;99.90
43987;DHT22;29650;47.378;8.300;2023-02-25T02:54:15;6.50;99.90
43987;DHT22;29650;47.378;8.300;2023-02-25T02:56:45;6.60;99.90
43987;DHT22;29650;47.378;8.300;2023-02-25T02:59:19;6.60;99.90
43987;DHT22;29650;47.378;8.300;2023-02-25T03:01:49;6.70;99.90
43987;DHT22;29650;47.378;8.300;2023-02-25T03:04:23;6.80;99.90
43987;DHT22;29650;47.378;8.300;2023-02-25T03:06:54;6.90;99.90
43987;DHT22;29650;47.378;8.300;2023-02-25T03:09:27;6.80;99.90
43987;DHT22;29650;47.378;8.300;2023-02-25T03:11:56;6.60;99.90
43987;DHT22;29650;47.378;8.300;2023-02-25T03:14:31;6.70;99.90
43987;DHT22;29650;47.378;8.300;2023-02-25T03:17:11;6.80;99.90
43987;DHT22;29650;47.378;8.300;2023-02-25T03:19:44;6.80;99.90
43987;DHT22;29650;47.378;8.300;2023-02-25T03:22:16;6.70;99.90
43987;DHT22;29650;47.378;8.300;2023-02-25T03:24:49;6.70;99.90
43987;DHT22;29650;47.378;8.300;2023-02-25T03:27:25;6.60;99.90
43987;DHT22;29650;47.378;8.300;2023-02-25T03:30:03;6.60;99.90
43987;DHT22;29650;47.378;8.300;2023-02-25T03:32:32;6.70;99.90
43987;DHT22;29650;47.378;8.300;2023-02-25T03:35:03;6.80;99.90
43987;DHT22;29650;47.378;8.300;2023-02-25T03:37:31;6.80;99.90
43987;DHT22;29650;47.378;8.300;2023-02-25T03:40:03;6.70;99.90
43987;DHT22;29650;47.378;8.300;2023-02-25T03:42:38;6.80;99.90
43987;DHT22;29650;47.378;8.300;2023-02-25T03:45:10;6.70;99.90
43987;DHT22;29650;47.378;8.300;2023-02-25T03:47:39;6.70;99.90
43987;DHT22;29650;47.378;8.300;2023-02-25T03:50:11;6.70;99.90
43987;DHT22;29650;47.378;8.300;2023-02-25T03:52:40;6.50;99.90
43987;DHT22;29650;47.378;8.300;2023-02-25T03:55:09;6.50;99.90
43987;DHT22;29650;47.378;8.300;2023-02-25T03:57:38;6.30;99.90
43987;DHT22;29650;47.378;8.300;2023-02-25T04:00:31;6.30;99.90
43987;DHT22;29650;47.378;8.300;2023-02-25T04:03:21;6.40;99.90
43987;DHT22;29650;47.378;8.300;2023-02-25T04:05:53;6.40;99.90
43987;DHT22;29650;47.378;8.300;2023-02-25T04:08:24;6.30;99.90
43987;DHT22;29650;47.378;8.300;2023-02-25T04:11:07;6.30;99.90
43987;DHT22;29650;47.378;8.300;2023-02-25T04:13:34;6.40;99.90
43987;DHT22;29650;47.378;8.300;2023-02-25T04:16:01;6.40;99.90
43987;DHT22;29650;47.378;8.300;2023-02-25T04:18:31;6.50;99.90
43987;DHT22;29650;47.378;8.300;2023-02-25T04:21:00;6.60;99.90
43987;DHT22;29650;47.378;8.300;2023-02-25T04:23:27;6.50;99.90
43987;DHT22;29650;47.378;8.300;2023-02-25T04:25:54;6.60;99.90
43987;DHT22;29650;47.378;8.300;2023-02-25T04:28:22;6.40;99.90
43987;DHT22;29650;47.378;8.300;2023-02-25T04:30:49;6.40;99.90
43987;DHT22;29650;47.378;8.300;2023-02-25T04:33:17;6.50;99.90
43987;DHT22;29650;47.378;8.300;2023-02-25T04:35:44;6.40;99.90
43987;DHT22;29650;47.378;8.300;2023-02-25T04:38:13;6.20;99.90
43987;DHT22;29650;47.378;8.300;2023-02-25T04:40:40;6.40;99.90
43987;DHT22;29650;47.378;8.300;2023-02-25T04:43:10;6.60;99.90
43987;DHT22;29650;47.378;8.300;2023-02-25T04:45:44;6.50;99.90
43987;DHT22;29650;47.378;8.300;2023-02-25T04:48:11;6.60;99.90
43987;DHT22;29650;47.378;8.300;2023-02-25T04:51:00;6.50;99.90
43987;DHT22;29650;47.378;8.300;2023-02-25T04:53:31;6.40;99.90
43987;DHT22;29650;47.378;8.300;2023-02-25T04:56:12;6.40;99.90
43987;DHT22;29650;47.378;8.300;2023-02-25T04:58:39;6.40;99.90
43987;DHT22;29650;47.378;8.300;2023-02-25T05:01:08;6.40;99.90
43987;DHT22;29650;47.378;8.300;2023-02-25T05:03:39;6.40;99.90
43987;DHT22;29650;47.378;8.300;2023-02-25T05:06:07;6.50;99.90
43987;DHT22;29650;47.378;8.300;2023-02-25T05:08:36;6.40;99.90
43987;DHT22;29650;47.378;8.300;2023-02-25T05:11:03;6.30;99.90
43987;DHT22;29650;47.378;8.300;2023-02-25T05:13:33;6.30;99.90
43987;DHT22;29650;47.378;8.300;2023-02-25T05:16:05;6.20;99.90
43987;DHT22;29650;47.378;8.300;2023-02-25T05:18:35;6.40;99.90
43987;DHT22;29650;47.378;8.300;2023-02-25T05:21:03;6.20;99.90
43987;DHT22;29650;47.378;8.300;2023-02-25T05:23:32;6.30;99.90
43987;DHT22;29650;47.378;8.300;2023-02-25T05:26:11;6.40;99.90
43987;DHT22;29650;47.378;8.300;2023-02-25T05:28:39;6.40;99.90
43987;DHT22;29650;47.378;8.300;2023-02-25T05:31:10;6.40;99.90
43987;DHT22;29650;47.378;8.300;2023-02-25T05:33:39;6.40;99.90
43987;DHT22;29650;47.378;8.300;2023-02-25T05:36:11;6.50;99.90
43987;DHT22;29650;47.378;8.300;2023-02-25T05:38:39;6.50;99.90
43987;DHT22;29650;47.378;8.300;2023-02-25T05:41:09;6.40;99.90
43987;DHT22;29650;47.378;8.300;2023-02-25T05:43:37;6.30;99.90
43987;DHT22;29650;47.378;8.300;2023-02-25T05:46:05;6.40;99.90
43987;DHT22;29650;47.378;8.300;2023-02-25T05:48:37;6.30;99.90
43987;DHT22;29650;47.378;8.300;2023-02-25T05:51:05;6.20;99.90
43987;DHT22;29650;47.378;8.300;2023-02-25T05:53:36;6.20;99.90
43987;DHT22;29650;47.378;8.300;2023-02-25T05:56:06;6.30;99.90
43987;DHT22;29650;47.378;8.300;2023-02-25T05:58:37;6.40;99.90
43987;DHT22;29650;47.378;8.300;2023-02-25T06:01:07;6.40;99.90
43987;DHT22;29650;47.378;8.300;2023-02-25T06:03:36;6.40;99.90
43987;DHT22;29650;47.378;8.300;2023-02-25T06:06:08;6.40;99.90
43987;DHT22;29650;47.378;8.300;2023-02-25T06:08:51;6.30;99.90
43987;DHT22;29650;47.378;8.300;2023-02-25T06:11:21;6.40;99.90
43987;DHT22;29650;47.378;8.300;2023-02-25T06:13:52;6.60;99.90
43987;DHT22;29650;47.378;8.300;2023-02-25T06:16:19;6.70;99.90
43987;DHT22;29650;47.378;8.300;2023-02-25T06:18:48;6.60;99.90
43987;DHT22;29650;47.378;8.300;2023-02-25T06:21:22;6.40;99.90
43987;DHT22;29650;47.378;8.300;2023-02-25T06:23:59;6.30;99.90
43987;DHT22;29650;47.378;8.300;2023-02-25T06:26:31;6.30;99.90
43987;DHT22;29650;47.378;8.300;2023-02-25T06:29:02;6.20;99.90
43987;DHT22;29650;47.378;8.300;2023-02-25T06:31:32;6.20;99.90
43987;DHT22;29650;47.378;8.300;2023-02-25T06:33:59;6.30;99.90
43987;DHT22;29650;47.378;8.300;2023-02-25T06:36:30;6.30;99.90
43987;DHT22;29650;47.378;8.300;2023-02-25T06:39:20;6.30;99.90
43987;DHT22;29650;47.378;8.300;2023-02-25T06:41:47;6.30;99.90
43987;DHT22;29650;47.378;8.300;2023-02-25T06:44:20;6.40;99.90
43987;DHT22;29650;47.378;8.300;2023-02-25T06:46:49;6.30;99.90
43987;DHT22;29650;47.378;8.300;2023-02-25T06:49:30;6.30;99.90
43987;DHT22;29650;47.378;8.300;2023-02-25T06:52:01;6.20;99.90
43987;DHT22;29650;47.378;8.300;2023-02-25T06:54:28;6.30;99.90
43987;DHT22;29650;47.378;8.300;2023-02-25T06:56:55;6.20;99.90
43987;DHT22;29650;47.378;8.300;2023-02-25T06:59:33;6.20;99.90
43987;DHT22;29650;47.378;8.300;2023-02-25T07:02:12;6.30;99.90
43987;DHT22;29650;47.378;8.300;2023-02-25T07:04:48;6.30;99.90
43987;DHT22;29650;47.378;8.300;2023-02-25T07:07:18;5.80;99.90
43987;DHT22;29650;47.378;8.300;2023-02-25T07:10:06;6.30;99.90
43987;DHT22;29650;47.378;8.300;2023-02-25T07:12:35;6.30;99.90
43987;DHT22;29650;47.378;8.300;2023-02-25T07:15:05;6.30;99.90
43987;DHT22;29650;47.378;8.300;2023-02-25T07:17:47;6.30;99.90
43987;DHT22;29650;47.378;8.300;2023-02-25T07:20:15;6.50;99.90
43987;DHT22;29650;47.378;8.300;2023-02-25T07:22:43;6.50;99.90
43987;DHT22;29650;47.378;8.300;2023-02-25T07:25:10;6.60;99.90
43987;DHT22;29650;47.378;8.300;2023-02-25T07:27:39;6.60;99.90
43987;DHT22;29650;47.378;8.300;2023-02-25T07:30:11;6.50;99.90
43987;DHT22;29650;47.378;8.300;2023-02-25T07:32:39;6.40;99.90
43987;DHT22;29650;47.378;8.300;2023-02-25T07:35:08;6.40;99.90
43987;DHT22;29650;47.378;8.300;2023-02-25T07:37:35;6.40;99.90
43987;DHT22;29650;47.378;8.300;2023-02-25T07:40:07;6.30;99.90
43987;DHT22;29650;47.378;8.300;2023-02-25T07:42:38;6.50;99.90
43987;DHT22;29650;47.378;8.300;2023-02-25T07:45:10;6.60;99.90
43987;DHT22;29650;47.378;8.300;2023-02-25T07:47:38;5.50;99.90
43987;DHT22;29650;47.378;8.300;2023-02-25T07:50:06;6.70;99.90
43987;DHT22;29650;47.378;8.300;2023-02-25T07:52:48;6.60;99.90
43987;DHT22;29650;47.378;8.300;2023-02-25T07:55:17;6.70;99.90
43987;DHT22;29650;47.378;8.300;2023-02-25T07:57:44;6.80;99.90
43987;DHT22;29650;47.378;8.300;2023-02-25T08:00:14;6.90;99.90
43987;DHT22;29650;47.378;8.300;2023-02-25T08:02:42;6.90;99.90
43987;DHT22;29650;47.378;8.300;2023-02-25T08:05:09;7.00;99.90
43987;DHT22;29650;47.378;8.300;2023-02-25T08:07:46;6.90;99.90
43987;DHT22;29650;47.378;8.300;2023-02-25T08:10:19;6.80;99.90
43987;DHT22;29650;47.378;8.300;2023-02-25T08:12:48;6.80;99.90
43987;DHT22;29650;47.378;8.300;2023-02-25T08:15:17;6.90;99.90
43987;DHT22;29650;47.378;8.300;2023-02-25T08:17:44;7.10;99.90
43987;DHT22;29650;47.378;8.300;2023-02-25T08:20:13;7.10;99.90
43987;DHT22;29650;47.378;8.300;2023-02-25T08:22:41;7.00;99.90
43987;DHT22;29650;47.378;8.300;2023-02-25T08:25:09;7.20;99.90
43987;DHT22;29650;47.378;8.300;2023-02-25T08:27:36;7.00;99.90
43987;DHT22;29650;47.378;8.300;2023-02-25T08:30:04;7.10;99.90
43987;DHT22;29650;47.378;8.300;2023-02-25T08:32:35;7.10;99.90
43987;DHT22;29650;47.378;8.300;2023-02-25T08:35:02;7.20;99.90
43987;DHT22;29650;47.378;8.300;2023-02-25T08:37:29;6.90;99.90
43987;DHT22;29650;47.378;8.300;2023-02-25T08:39:57;6.90;99.90
43987;DHT22;29650;47.378;8.300;2023-02-25T08:42:25;6.90;99.90
43987;DHT22;29650;47.378;8.300;2023-02-25T08:44:58;7.10;99.90
43987;DHT22;29650;47.378;8.300;2023-02-25T08:48:07;7.20;99.90
43987;DHT22;29650;47.378;8.300;2023-02-25T08:50:43;7.20;99.90
43987;DHT22;29650;47.378;8.300;2023-02-25T08:53:10;7.20;99.90
43987;DHT22;29650;47.378;8.300;2023-02-25T08:55:37;7.10;99.90
43987;DHT22;29650;47.378;8.300;2023-02-25T08:58:05;7.10;99.90
43987;DHT22;29650;47.378;8.300;2023-02-25T09:00:35;7.20;99.90
43987;DHT22;29650;47.378;8.300;2023-02-25T09:03:03;5.80;99.90
43987;DHT22;29650;47.378;8.300;2023-02-25T09:05:31;7.10;99.90
43987;DHT22;29650;47.378;8.300;2023-02-25T09:07:58;7.00;99.90
43987;DHT22;29650;47.378;8.300;2023-02-25T09:10:25;7.10;99.90
43987;DHT22;29650;47.378;8.300;2023-02-25T09:12:52;7.10;99.90
43987;DHT22;29650;47.378;8.300;2023-02-25T09:15:19;7.10;99.90
43987;DHT22;29650;47.378;8.300;2023-02-25T09:17:47;7.10;99.90
43987;DHT22;29650;47.378;8.300;2023-02-25T09:20:17;7.20;99.90
43987;DHT22;29650;47.378;8.300;2023-02-25T09:22:46;7.20;99.90
43987;DHT22;29650;47.378;8.300;2023-02-25T09:25:15;7.20;99.90
43987;DHT22;29650;47.378;8.300;2023-02-25T09:27:42;7.30;99.90
43987;DHT22;29650;47.378;8.300;2023-02-25T09:30:17;7.30;99.90
43987;DHT22;29650;47.378;8.300;2023-02-25T09:32:44;7.30;99.90
43987;DHT22;29650;47.378;8.300;2023-02-25T09:35:11;7.30;99.90
43987;DHT22;29650;47.378;8.300;2023-02-25T09:37:39;7.00;99.90
43987;DHT22;29650;47.378;8.300;2023-02-25T09:40:14;6.90;99.90
43987;DHT22;29650;47.378;8.300;2023-02-25T09:42:51;6.80;99.90
43987;DHT22;29650;47.378;8.300;2023-02-25T09:45:22;6.70;99.90
43987;DHT22;29650;47.378;8.300;2023-02-25T09:47:56;6.70;99.90
43987;DHT22;29650;47.378;8.300;2023-02-25T09:50:27;6.70;99.90
43987;DHT22;29650;47.378;8.300;2023-02-25T09:53:17;6.40;99.90
43987;DHT22;29650;47.378;8.300;2023-02-25T09:56:17;6.30;99.90
43987;DHT22;29650;47.378;8.300;2023-02-25T09:58:59;6.40;99.90
43987;DHT22;29650;47.378;8.300;2023-02-25T10:04:50;6.50;99.90
43987;DHT22;29650;47.378;8.300;2023-02-25T10:07:47;6.60;99.90
43987;DHT22;29650;47.378;8.300;2023-02-25T10:10:19;6.40;99.90
43987;DHT22;29650;47.378;8.300;2023-02-25T10:13:07;4.50;99.90
43987;DHT22;29650;47.378;8.300;2023-02-25T10:15:49;6.30;99.90
43987;DHT22;29650;47.378;8.300;2023-02-25T10:18:56;6.60;99.90
43987;DHT22;29650;47.378;8.300;2023-02-25T10:21:58;6.60;99.90
43987;DHT22;29650;47.378;8.300;2023-02-25T10:24:55;6.60;99.90
43987;DHT22;29650;47.378;8.300;2023-02-25T10:27:26;6.80;99.90
43987;DHT22;29650;47.378;8.300;2023-02-25T10:30:03;6.80;99.90
43987;DHT22;29650;47.378;8.300;2023-02-25T10:32:44;6.70;99.90
43987;DHT22;29650;47.378;8.300;2023-02-25T10:35:16;6.60;99.90
43987;DHT22;29650;47.378;8.300;2023-02-25T10:37:45;6.70;99.90
43987;DHT22;29650;47.378;8.300;2023-02-25T10:40:23;5.10;99.90
43987;DHT22;29650;47.378;8.300;2023-02-25T10:43:17;6.90;99.90
43987;DHT22;29650;47.378;8.300;2023-02-25T10:46:00;7.00;99.90
43987;DHT22;29650;47.378;8.300;2023-02-25T10:48:30;7.00;99.90
43987;DHT22;29650;47.378;8.300;2023-02-25T10:51:06;7.30;99.90
43987;DHT22;29650;47.378;8.300;2023-02-25T10:53:34;7.50;99.90
43987;DHT22;29650;47.378;8.300;2023-02-25T10:56:02;7.50;99.90
43987;DHT22;29650;47.378;8.300;2023-02-25T10:58:39;7.60;99.90
43987;DHT22;29650;47.378;8.300;2023-02-25T11:01:12;7.70;99.90
43987;DHT22;29650;47.378;8.300;2023-02-25T11:03:46;7.60;99.90
43987;DHT22;29650;47.378;8.300;2023-02-25T11:06:22;7.60;99.90
43987;DHT22;29650;47.378;8.300;2023-02-25T11:08:51;7.40;99.90
43987;DHT22;29650;47.378;8.300;2023-02-25T11:11:21;7.40;99.90
43987;DHT22;29650;47.378;8.300;2023-02-25T11:16:35;7.30;99.90
43987;DHT22;29650;47.378;8.300;2023-02-25T11:19:12;7.30;99.90
43987;DHT22;29650;47.378;8.300;2023-02-25T11:21:41;7.20;99.90
43987;DHT22;29650;47.378;8.300;2023-02-25T11:24:18;7.20;99.90
43987;DHT22;29650;47.378;8.300;2023-02-25T11:26:50;7.00;99.90
43987;DHT22;29650;47.378;8.300;2023-02-25T11:29:21;7.10;99.90
43987;DHT22;29650;47.378;8.300;2023-02-25T11:31:53;7.10;99.90
43987;DHT22;29650;47.378;8.300;2023-02-25T11:34:28;7.10;99.90
43987;DHT22;29650;47.378;8.300;2023-02-25T11:37:33;7.10;99.90
43987;DHT22;29650;47.378;8.300;2023-02-25T11:40:24;5.80;99.90
43987;DHT22;29650;47.378;8.300;2023-02-25T11:43:14;7.20;99.90
43987;DHT22;29650;47.378;8.300;2023-02-25T11:45:52;7.10;99.90
43987;DHT22;29650;47.378;8.300;2023-02-25T11:48:27;7.10;99.90
43987;DHT22;29650;47.378;8.300;2023-02-25T11:51:11;7.10;99.90
43987;DHT22;29650;47.378;8.300;2023-02-25T11:54:03;7.00;99.90
43987;DHT22;29650;47.378;8.300;2023-02-25T11:56:37;6.90;99.90
43987;DHT22;29650;47.378;8.300;2023-02-25T11:59:13;6.90;99.90
43987;DHT22;29650;47.378;8.300;2023-02-25T12:02:31;5.40;99.90
43987;DHT22;29650;47.378;8.300;2023-02-25T12:06:00;7.00;99.90
43987;DHT22;29650;47.378;8.300;2023-02-25T12:08:52;6.90;99.90
43987;DHT22;29650;47.378;8.300;2023-02-25T12:21:47;7.00;98.30
43987;DHT22;29650;47.378;8.300;2023-02-25T12:27:43;6.80;97.60
43987;DHT22;29650;47.378;8.300;2023-02-25T12:30:34;6.90;98.60
43987;DHT22;29650;47.378;8.300;2023-02-25T12:37:15;6.80;98.10
43987;DHT22;29650;47.378;8.300;2023-02-25T12:39:57;6.80;98.50
43987;DHT22;29650;47.378;8.300;2023-02-25T12:45:55;6.70;99.20
43987;DHT22;29650;47.378;8.300;2023-02-25T12:49:05;6.70;99.10
43987;DHT22;29650;47.378;8.300;2023-02-25T12:52:00;6.60;99.90
43987;DHT22;29650;47.378;8.300;2023-02-25T12:54:56;6.60;97.70
43987;DHT22;29650;47.378;8.300;2023-02-25T12:57:38;6.60;99.30
43987;DHT22;29650;47.378;8.300;2023-02-25T13:03:19;6.60;99.90
43987;DHT22;29650;47.378;8.300;2023-02-25T13:08:56;6.40;97.70
43987;DHT22;29650;47.378;8.300;2023-02-25T13:11:34;6.40;98.00
43987;DHT22;29650;47.378;8.300;2023-02-25T13:14:31;6.40;98.20
43987;DHT22;29650;47.378;8.300;2023-02-25T13:17:20;6.30;97.50
43987;DHT22;29650;47.378;8.300;2023-02-25T13:20:17;6.40;96.80
43987;DHT22;29650;47.378;8.300;2023-02-25T13:23:00;6.40;97.90
43987;DHT22;29650;47.378;8.300;2023-02-25T13:25:44;6.40;98.10
43987;DHT22;29650;47.378;8.300;2023-02-25T13:28:31;6.40;98.00
43987;DHT22;29650;47.378;8.300;2023-02-25T13:31:05;6.50;99.20
43987;DHT22;29650;47.378;8.300;2023-02-25T13:33:50;6.30;99.00
43987;DHT22;29650;47.378;8.300;2023-02-25T13:36:37;6.50;99.90
43987;DHT22;29650;47.378;8.300;2023-02-25T13:39:23;6.60;99.60
43987;DHT22;29650;47.378;8.300;2023-02-25T13:42:07;6.80;99.00
43987;DHT22;29650;47.378;8.300;2023-02-25T13:47:46;6.70;98.10
43987;DHT22;29650;47.378;8.300;2023-02-25T13:56:59;6.60;97.70
43987;DHT22;29650;47.378;8.300;2023-02-25T13:59:42;6.60;97.60
43987;DHT22;29650;47.378;8.300;2023-02-25T14:02:34;6.70;99.00
43987;DHT22;29650;47.378;8.300;2023-02-25T14:05:24;6.70;98.80
43987;DHT22;29650;47.378;8.300;2023-02-25T14:08:27;6.80;98.20
43987;DHT22;29650;47.378;8.300;2023-02-25T14:11:11;6.80;99.20
43987;DHT22;29650;47.378;8.300;2023-02-25T14:13:57;6.80;98.10
43987;DHT22;29650;47.378;8.300;2023-02-25T14:16:38;6.80;98.50
43987;DHT22;29650;47.378;8.300;2023-02-25T14:19:25;6.80;98.50
43987;DHT22;29650;47.378;8.300;2023-02-25T14:22:43;6.80;98.70
43987;DHT22;29650;47.378;8.300;2023-02-25T14:25:19;6.80;98.40
43987;DHT22;29650;47.378;8.300;2023-02-25T14:27:58;6.70;98.20
43987;DHT22;29650;47.378;8.300;2023-02-25T14:30:37;6.80;97.80
43987;DHT22;29650;47.378;8.300;2023-02-25T14:36:27;6.70;95.70
43987;DHT22;29650;47.378;8.300;2023-02-25T14:39:26;6.70;95.60
43987;DHT22;29650;47.378;8.300;2023-02-25T14:42:12;6.80;94.70
43987;DHT22;29650;47.378;8.300;2023-02-25T14:44:46;6.80;94.30
43987;DHT22;29650;47.378;8.300;2023-02-25T14:47:21;6.90;94.60
43987;DHT22;29650;47.378;8.300;2023-02-25T14:49:56;6.70;94.50
43987;DHT22;29650;47.378;8.300;2023-02-25T14:53:01;6.80;94.30
43987;DHT22;29650;47.378;8.300;2023-02-25T14:56:12;6.90;93.40
43987;DHT22;29650;47.378;8.300;2023-02-25T14:59:08;6.80;93.80
43987;DHT22;29650;47.378;8.300;2023-02-25T15:01:54;6.80;93.80
43987;DHT22;29650;47.378;8.300;2023-02-25T15:05:08;6.90;93.00
43987;DHT22;29650;47.378;8.300;2023-02-25T15:14:20;6.80;93.50
43987;DHT22;29650;47.378;8.300;2023-02-25T15:17:11;6.80;92.90
43987;DHT22;29650;47.378;8.300;2023-02-25T15:20:13;6.80;92.20
43987;DHT22;29650;47.378;8.300;2023-02-25T15:23:06;7.00;92.90
43987;DHT22;29650;47.378;8.300;2023-02-25T15:28:38;6.70;93.60
43987;DHT22;29650;47.378;8.300;2023-02-25T15:37:30;6.40;93.60
43987;DHT22;29650;47.378;8.300;2023-02-25T15:41:29;6.40;94.10
43987;DHT22;29650;47.378;8.300;2023-02-25T15:44:38;6.30;93.60
43987;DHT22;29650;47.378;8.300;2023-02-25T15:47:21;6.10;93.70
43987;DHT22;29650;47.378;8.300;2023-02-25T15:49:50;6.20;93.80
43987;DHT22;29650;47.378;8.300;2023-02-25T15:52:56;6.20;94.00
43987;DHT22;29650;47.378;8.300;2023-02-25T15:55:43;6.20;94.00
43987;DHT22;29650;47.378;8.300;2023-02-25T15:58:41;6.30;93.80
43987;DHT22;29650;47.378;8.300;2023-02-25T16:01:37;6.30;93.40
43987;DHT22;29650;47.378;8.300;2023-02-25T16:07:12;6.30;92.60
43987;DHT22;29650;47.378;8.300;2023-02-25T16:09:49;6.30;92.20
43987;DHT22;29650;47.378;8.300;2023-02-25T16:12:17;6.30;92.10
43987;DHT22;29650;47.378;8.300;2023-02-25T16:14:45;6.30;91.50
43987;DHT22;29650;47.378;8.300;2023-02-25T16:17:18;6.20;91.70
43987;DHT22;29650;47.378;8.300;2023-02-25T16:19:50;6.20;91.60
43987;DHT22;29650;47.378;8.300;2023-02-25T16:22:19;6.30;91.70
43987;DHT22;29650;47.378;8.300;2023-02-25T16:24:49;6.40;91.90
43987;DHT22;29650;47.378;8.300;2023-02-25T16:27:30;6.40;91.50
43987;DHT22;29650;47.378;8.300;2023-02-25T16:30:05;6.40;91.50
43987;DHT22;29650;47.378;8.300;2023-02-25T16:32:41;6.30;91.00
43987;DHT22;29650;47.378;8.300;2023-02-25T16:35:33;6.40;91.50
43987;DHT22;29650;47.378;8.300;2023-02-25T16:38:10;6.30;91.60
43987;DHT22;29650;47.378;8.300;2023-02-25T16:40:42;6.20;92.10
43987;DHT22;29650;47.378;8.300;2023-02-25T16:43:11;6.20;92.30
43987;DHT22;29650;47.378;8.300;2023-02-25T16:45:58;6.20;91.50
43987;DHT22;29650;47.378;8.300;2023-02-25T16:51:36;6.30;91.10
43987;DHT22;29650;47.378;8.300;2023-02-25T16:54:07;6.30;92.60
43987;DHT22;29650;47.378;8.300;2023-02-25T16:56:36;6.20;93.80
43987;DHT22;29650;47.378;8.300;2023-02-25T16:59:15;6.20;95.40
43987;DHT22;29650;47.378;8.300;2023-02-25T17:01:56;6.20;95.20
43987;DHT22;29650;47.378;8.300;2023-02-25T17:04:43;6.20;93.80
43987;DHT22;29650;47.378;8.300;2023-02-25T17:07:29;6.10;94.30
43987;DHT22;29650;47.378;8.300;2023-02-25T17:09:58;6.00;95.30
43987;DHT22;29650;47.378;8.300;2023-02-25T17:12:42;6.10;95.50
43987;DHT22;29650;47.378;8.300;2023-02-25T17:15:14;6.00;96.30
43987;DHT22;29650;47.378;8.300;2023-02-25T17:17:43;6.10;96.90
43987;DHT22;29650;47.378;8.300;2023-02-25T17:20:15;6.00;97.40
43987;DHT22;29650;47.378;8.300;2023-02-25T17:22:43;5.90;98.10
43987;DHT22;29650;47.378;8.300;2023-02-25T17:25:12;5.80;98.70
43987;DHT22;29650;47.378;8.300;2023-02-25T17:27:58;5.90;97.70
43987;DHT22;29650;47.378;8.300;2023-02-25T17:30:40;6.00;95.40
43987;DHT22;29650;47.378;8.300;2023-02-25T17:33:18;5.30;94.50
43987;DHT22;29650;47.378;8.300;2023-02-25T17:35:47;6.00;91.60
43987;DHT22;29650;47.378;8.300;2023-02-25T17:38:17;5.90;88.40
43987;DHT22;29650;47.378;8.300;2023-02-25T17:40:47;6.00;87.20
43987;DHT22;29650;47.378;8.300;2023-02-25T17:43:18;6.00;88.30
43987;DHT22;29650;47.378;8.300;2023-02-25T17:45:52;5.90;90.40
43987;DHT22;29650;47.378;8.300;2023-02-25T17:48:22;5.80;85.00
43987;DHT22;29650;47.378;8.300;2023-02-25T17:50:53;5.70;89.30
43987;DHT22;29650;47.378;8.300;2023-02-25T17:53:38;5.70;86.90
43987;DHT22;29650;47.378;8.300;2023-02-25T17:56:10;5.30;82.50